createdAt,value
2023-05-05T00:01:28.691Z,2.97
2023-05-05T00:03:56.939Z,3.10
2023-05-05T00:06:25.106Z,2.55
2023-05-05T00:08:53.305Z,3.03
2023-05-05T00:11:22.784Z,2.80
2023-05-05T00:13:51.915Z,3.13
2023-05-05T00:16:20.036Z,2.85
2023-05-05T00:18:48.211Z,2.80
2023-05-05T00:21:16.547Z,2.80
2023-05-05T00:23:44.836Z,3.03
2023-05-05T00:26:14.110Z,2.92
2023-05-05T00:28:45.542Z,3.30
2023-05-05T00:31:14.080Z,3.05
2023-05-05T00:33:42.275Z,3.17
2023-05-05T00:36:10.669Z,2.85
2023-05-05T00:38:39.055Z,2.67
2023-05-05T00:41:07.360Z,3.28
2023-05-05T00:43:36.136Z,2.88
2023-05-05T00:46:23.056Z,3.13
2023-05-05T00:48:51.943Z,2.90
2023-05-05T00:51:21.606Z,3.00
2023-05-05T00:53:49.778Z,3.08
2023-05-05T00:56:19.390Z,2.80
2023-05-05T00:58:48.001Z,2.78
2023-05-05T01:01:18.215Z,2.78
2023-05-05T01:03:46.403Z,2.83
2023-05-05T01:06:29.137Z,2.58
2023-05-05T01:09:05.544Z,3.00
2023-05-05T01:11:40.490Z,3.20
2023-05-05T01:14:15.828Z,3.05
2023-05-05T01:16:54.643Z,2.95
2023-05-05T01:20:03.947Z,3.42
2023-05-05T01:22:38.905Z,2.70
2023-05-05T01:25:27.594Z,3.38
2023-05-05T01:28:20.455Z,3.35
2023-05-05T01:31:08.949Z,3.00
2023-05-05T01:33:44.984Z,2.90
2023-05-05T01:36:22.728Z,2.78
2023-05-05T01:38:57.704Z,3.17
2023-05-05T01:41:30.866Z,2.80
2023-05-05T01:44:03.768Z,2.72
2023-05-05T01:46:34.452Z,3.22
2023-05-05T01:49:05.067Z,3.08
2023-05-05T01:51:34.037Z,3.13
2023-05-05T01:54:07.668Z,3.58
2023-05-05T01:56:38.880Z,3.00
2023-05-05T01:59:08.030Z,2.75
2023-05-05T02:01:40.841Z,2.72
2023-05-05T02:04:11.601Z,3.25
2023-05-05T02:06:42.327Z,3.20
2023-05-05T02:09:13.906Z,2.83
2023-05-05T02:11:42.486Z,3.20
2023-05-05T02:14:12.245Z,2.58
2023-05-05T02:16:43.706Z,2.60
2023-05-05T02:19:14.851Z,2.88
2023-05-05T02:21:43.538Z,2.95
2023-05-05T02:24:11.988Z,2.80
2023-05-05T02:26:41.937Z,3.20
2023-05-05T02:29:16.265Z,3.03
2023-05-05T02:31:48.875Z,2.92
2023-05-05T02:34:28.118Z,3.03
2023-05-05T02:36:59.294Z,3.88
2023-05-05T02:39:33.698Z,3.20
2023-05-05T02:42:10.094Z,2.90
2023-05-05T02:44:42.511Z,3.25
2023-05-05T02:47:12.197Z,2.70
2023-05-05T02:49:41.741Z,2.85
2023-05-05T02:52:10.004Z,3.25
2023-05-05T02:54:40.014Z,3.10
2023-05-05T02:57:20.998Z,3.00
2023-05-05T03:00:05.696Z,2.97
2023-05-05T03:02:45.626Z,3.20
2023-05-05T03:05:23.320Z,3.28
2023-05-05T03:07:56.903Z,3.00
2023-05-05T03:10:30.951Z,3.33
2023-05-05T03:13:04.151Z,3.35
2023-05-05T03:15:47.052Z,2.95
2023-05-05T03:18:19.521Z,3.35
2023-05-05T03:20:55.123Z,3.25
2023-05-05T03:23:23.469Z,2.90
2023-05-05T03:25:57.146Z,3.17
2023-05-05T03:28:38.176Z,3.33
2023-05-05T03:31:15.177Z,3.20
2023-05-05T03:33:43.547Z,3.10
2023-05-05T03:36:13.150Z,3.47
2023-05-05T03:38:41.585Z,3.03
2023-05-05T03:41:10.705Z,3.55
2023-05-05T03:43:39.369Z,3.00
2023-05-05T03:46:08.114Z,3.20
2023-05-05T03:48:36.480Z,3.15
2023-05-05T03:51:04.829Z,3.65
2023-05-05T03:53:36.965Z,3.53
2023-05-05T03:56:08.083Z,3.28
2023-05-05T03:58:36.279Z,3.20
2023-05-05T04:01:04.955Z,3.20
2023-05-05T04:03:34.386Z,3.70
2023-05-05T04:06:03.058Z,3.22
2023-05-05T04:08:32.926Z,3.28
2023-05-05T04:11:03.226Z,3.08
2023-05-05T04:13:33.464Z,3.25
2023-05-05T04:16:01.744Z,3.33
2023-05-05T04:18:30.454Z,3.15
2023-05-05T04:20:58.904Z,3.17
2023-05-05T04:23:27.809Z,3.60
2023-05-05T04:25:55.988Z,3.45
2023-05-05T04:28:26.493Z,3.70
2023-05-05T04:30:54.702Z,3.60
2023-05-05T04:33:22.855Z,3.20
2023-05-05T04:35:51.689Z,3.78
2023-05-05T04:38:21.256Z,2.90
2023-05-05T04:40:50.436Z,3.70
2023-05-05T04:43:19.768Z,3.40
2023-05-05T04:45:56.614Z,3.45
2023-05-05T04:48:28.742Z,3.80
2023-05-05T04:50:57.013Z,3.80
2023-05-05T04:53:25.414Z,3.50
2023-05-05T04:55:53.564Z,3.75
2023-05-05T04:58:21.814Z,3.45
2023-05-05T05:00:50.182Z,3.40
2023-05-05T05:03:21.635Z,3.58
2023-05-05T05:05:50.456Z,3.20
2023-05-05T05:08:18.864Z,3.30
2023-05-05T05:10:47.009Z,3.30
2023-05-05T05:13:15.246Z,3.80
2023-05-05T05:15:43.689Z,3.63
2023-05-05T05:18:12.212Z,3.95
2023-05-05T05:20:42.191Z,3.75
2023-05-05T05:23:10.400Z,3.72
2023-05-05T05:25:43.763Z,4.00
2023-05-05T05:28:13.183Z,3.88
2023-05-05T05:30:47.797Z,4.00
2023-05-05T05:33:16.370Z,4.07
2023-05-05T05:35:47.825Z,4.18
2023-05-05T05:38:17.572Z,3.67
2023-05-05T05:40:46.444Z,4.60
2023-05-05T05:43:15.282Z,3.72
2023-05-05T05:45:43.445Z,4.20
2023-05-05T05:48:12.118Z,3.88
2023-05-05T05:50:40.324Z,4.20
2023-05-05T05:53:10.100Z,4.35
2023-05-05T05:55:38.212Z,4.00
2023-05-05T05:58:09.613Z,4.20
2023-05-05T06:00:37.896Z,3.72
2023-05-05T06:03:09.769Z,4.43
2023-05-05T06:05:40.381Z,3.95
2023-05-05T06:08:10.246Z,4.10
2023-05-05T06:10:44.161Z,4.60
2023-05-05T06:13:17.024Z,4.28
2023-05-05T06:15:48.756Z,4.93
2023-05-05T06:18:17.839Z,4.18
2023-05-05T06:20:46.367Z,4.50
2023-05-05T06:23:17.754Z,4.55
2023-05-05T06:25:51.093Z,4.70
2023-05-05T06:28:19.731Z,4.63
2023-05-05T06:30:47.957Z,4.45
2023-05-05T06:33:16.624Z,4.90
2023-05-05T06:35:44.909Z,4.60
2023-05-05T06:38:13.263Z,4.40
2023-05-05T06:40:43.484Z,4.00
2023-05-05T06:43:11.739Z,4.78
2023-05-05T06:45:46.331Z,4.93
2023-05-05T06:48:14.802Z,4.35
2023-05-05T06:50:43.153Z,4.53
2023-05-05T06:53:11.323Z,4.60
2023-05-05T06:55:39.841Z,4.57
2023-05-05T06:58:09.502Z,4.88
2023-05-05T07:00:38.224Z,4.53
2023-05-05T07:03:06.389Z,4.28
2023-05-05T07:05:34.802Z,3.85
2023-05-05T07:08:02.908Z,4.60
2023-05-05T07:10:31.530Z,4.53
2023-05-05T07:12:59.846Z,4.55
2023-05-05T07:15:29.900Z,4.65
2023-05-05T07:17:58.682Z,4.43
2023-05-05T07:20:27.541Z,4.13
2023-05-05T07:22:55.946Z,3.90
2023-05-05T07:25:24.355Z,4.57
2023-05-05T07:27:52.631Z,4.75
2023-05-05T07:30:21.380Z,4.43
2023-05-05T07:32:51.226Z,4.38
2023-05-05T07:35:19.687Z,4.45
2023-05-05T07:37:48.154Z,4.28
2023-05-05T07:40:16.621Z,4.47
2023-05-05T07:42:45.068Z,3.83
2023-05-05T07:45:13.284Z,4.38
2023-05-05T07:47:41.562Z,4.18
2023-05-05T07:50:12.322Z,5.15
2023-05-05T07:55:11.657Z,4.20
2023-05-05T07:57:40.086Z,4.03
2023-05-05T08:00:09.904Z,4.45
2023-05-05T08:02:44.071Z,4.55
2023-05-05T08:05:14.096Z,4.15
2023-05-05T08:07:42.356Z,4.10
2023-05-05T08:10:12.524Z,3.33
2023-05-05T08:12:41.345Z,4.80
2023-05-05T08:15:10.398Z,3.63
2023-05-05T08:17:46.785Z,3.85
2023-05-05T08:20:16.567Z,4.22
2023-05-05T08:22:45.128Z,4.30
2023-05-05T08:25:14.038Z,4.78
2023-05-05T08:27:43.468Z,4.53
2023-05-05T08:30:12.595Z,4.38
2023-05-05T08:32:42.194Z,3.83
2023-05-05T08:35:11.813Z,4.10
2023-05-05T08:37:41.757Z,4.38
2023-05-05T08:40:13.979Z,4.28
2023-05-05T08:42:42.448Z,4.55
2023-05-05T08:45:11.594Z,4.97
2023-05-05T08:47:40.523Z,4.57
2023-05-05T08:50:12.011Z,4.68
2023-05-05T08:52:44.474Z,4.28
2023-05-05T08:55:21.468Z,4.78
2023-05-05T08:57:53.064Z,4.47
2023-05-05T09:00:21.902Z,4.88
2023-05-05T09:02:50.291Z,4.30
2023-05-05T09:05:18.831Z,4.28
2023-05-05T09:07:48.872Z,3.95
2023-05-05T09:10:17.139Z,5.25
2023-05-05T09:12:45.618Z,4.93
2023-05-05T09:15:16.467Z,5.53
2023-05-05T09:17:44.759Z,4.93
2023-05-05T09:20:15.267Z,5.13
2023-05-05T09:22:46.852Z,5.07
2023-05-05T09:25:17.905Z,4.93
2023-05-05T09:27:48.213Z,5.18
2023-05-05T09:30:18.046Z,4.38
2023-05-05T09:32:51.858Z,4.78
2023-05-05T09:35:21.283Z,4.82
2023-05-05T09:37:49.622Z,4.72
2023-05-05T09:40:21.290Z,4.80
2023-05-05T09:42:49.616Z,4.80
2023-05-05T09:45:28.478Z,4.50
2023-05-05T09:48:00.375Z,4.10
2023-05-05T09:50:30.920Z,4.82
2023-05-05T09:53:00.972Z,3.75
2023-05-05T09:55:31.969Z,4.20
2023-05-05T09:58:19.530Z,4.43
2023-05-05T10:00:48.044Z,4.05
2023-05-05T10:03:16.356Z,4.32
2023-05-05T10:05:52.338Z,4.20
2023-05-05T10:08:21.550Z,4.20
2023-05-05T10:10:54.190Z,3.75
2023-05-05T10:13:23.260Z,3.53
2023-05-05T10:15:53.560Z,4.53
2023-05-05T10:18:23.518Z,3.97
2023-05-05T10:20:57.257Z,4.07
2023-05-05T10:23:33.311Z,4.03
2023-05-05T10:26:06.652Z,4.15
2023-05-05T10:28:35.908Z,4.25
2023-05-05T10:31:16.497Z,3.70
2023-05-05T10:33:55.886Z,3.78
2023-05-05T10:36:25.543Z,4.18
2023-05-05T10:38:57.366Z,3.78
2023-05-05T10:41:27.674Z,3.90
2023-05-05T10:43:57.940Z,3.63
2023-05-05T10:46:27.842Z,4.28
2023-05-05T10:49:04.397Z,3.63
2023-05-05T10:51:42.427Z,3.88
2023-05-05T10:54:18.438Z,3.90
2023-05-05T10:56:49.037Z,3.75
2023-05-05T10:59:42.932Z,4.13
2023-05-05T11:02:25.572Z,4.38
2023-05-05T11:05:22.528Z,4.53
2023-05-05T11:07:52.395Z,3.90
2023-05-05T11:10:22.957Z,3.90
2023-05-05T11:13:21.766Z,4.10
2023-05-05T11:15:52.134Z,3.70
2023-05-05T11:18:31.721Z,3.78
2023-05-05T11:21:16.697Z,3.97
2023-05-05T11:23:50.321Z,3.47
2023-05-05T11:26:20.211Z,3.40
2023-05-05T11:29:11.349Z,3.80
2023-05-05T11:31:39.654Z,3.33
2023-05-05T11:34:28.060Z,3.53
2023-05-05T11:37:02.769Z,3.22
2023-05-05T11:39:53.944Z,3.28
2023-05-05T11:42:25.641Z,3.75
2023-05-05T11:44:55.948Z,3.25
2023-05-05T11:47:33.999Z,3.45
2023-05-05T11:50:23.436Z,3.10
2023-05-05T11:52:51.812Z,3.90
2023-05-05T11:55:24.041Z,3.42
2023-05-05T11:57:52.415Z,3.33
2023-05-05T12:00:33.411Z,3.78
2023-05-05T12:03:01.966Z,3.10
2023-05-05T12:05:30.234Z,3.63
2023-05-05T12:07:59.412Z,3.33
2023-05-05T12:10:28.178Z,3.15
2023-05-05T12:12:56.476Z,2.97
2023-05-05T12:15:36.104Z,3.20
2023-05-05T12:18:05.893Z,3.60
2023-05-05T12:20:36.744Z,3.38
2023-05-05T12:23:05.175Z,3.40
2023-05-05T12:25:37.054Z,3.20
2023-05-05T12:28:06.420Z,3.13
2023-05-05T12:30:36.402Z,3.38
2023-05-05T12:33:06.119Z,3.35
2023-05-05T12:35:35.856Z,3.00
2023-05-05T12:38:04.683Z,2.95
2023-05-05T12:40:47.158Z,3.15
2023-05-05T12:43:34.231Z,2.92
2023-05-05T12:46:06.580Z,2.90
2023-05-05T12:48:35.697Z,3.40
2023-05-05T12:51:15.111Z,3.45
2023-05-05T12:53:43.591Z,3.15
2023-05-05T12:56:31.231Z,3.45
2023-05-05T12:58:59.341Z,3.38
2023-05-05T13:01:29.214Z,2.85
2023-05-05T13:04:08.660Z,2.88
2023-05-05T13:06:37.711Z,3.08
2023-05-05T13:09:06.728Z,2.75
2023-05-05T13:11:38.761Z,2.70
2023-05-05T13:14:08.720Z,2.45
2023-05-05T13:16:38.361Z,2.85
2023-05-05T13:19:06.546Z,3.40
2023-05-05T13:21:34.914Z,3.00
2023-05-05T13:24:20.800Z,2.80
2023-05-05T13:26:52.622Z,3.20
2023-05-05T13:29:21.057Z,3.05
2023-05-05T13:31:50.940Z,2.92
2023-05-05T13:34:19.157Z,2.65
2023-05-05T13:36:47.364Z,2.63
2023-05-05T13:39:15.795Z,2.47
2023-05-05T13:41:44.757Z,2.70
2023-05-05T13:44:13.728Z,2.78
2023-05-05T13:46:42.782Z,3.08
2023-05-05T13:49:12.367Z,2.72
2023-05-05T13:51:40.706Z,2.20
2023-05-05T13:54:09.501Z,2.60
2023-05-05T13:56:37.765Z,3.08
2023-05-05T13:59:05.920Z,3.00
2023-05-05T14:01:34.115Z,2.92
2023-05-05T14:04:05.199Z,2.70
2023-05-05T14:06:35.803Z,2.75
2023-05-05T14:09:05.993Z,2.80
2023-05-05T14:11:34.870Z,2.70
2023-05-05T14:14:03.011Z,2.55
2023-05-05T14:16:31.291Z,2.67
2023-05-05T14:18:59.603Z,2.80
2023-05-05T14:21:27.834Z,3.00
2023-05-05T14:23:57.403Z,2.80
2023-05-05T14:26:25.842Z,2.70
2023-05-05T14:28:54.667Z,3.10
2023-05-05T14:31:22.868Z,3.03
2023-05-05T14:33:51.367Z,2.42
2023-05-05T14:36:19.737Z,3.05
2023-05-05T14:38:47.889Z,2.67
2023-05-05T14:41:17.358Z,2.83
2023-05-05T14:43:45.524Z,2.65
2023-05-05T14:46:13.840Z,3.10
2023-05-05T14:48:42.308Z,2.67
2023-05-05T14:51:10.579Z,2.53
2023-05-05T14:53:38.806Z,2.33
2023-05-05T14:56:07.543Z,2.65
2023-05-05T14:58:37.271Z,2.60
2023-05-05T15:01:05.827Z,3.03
2023-05-05T15:03:34.322Z,2.60
2023-05-05T15:06:03.228Z,2.80
2023-05-05T15:08:31.338Z,2.88
2023-05-05T15:10:59.441Z,3.00
2023-05-05T15:13:27.843Z,2.60
2023-05-05T15:15:57.390Z,2.42
2023-05-05T15:18:25.630Z,2.28
2023-05-05T15:20:53.818Z,2.75
2023-05-05T15:23:21.974Z,2.42
2023-05-05T15:25:50.119Z,2.65
2023-05-05T15:28:18.661Z,2.60
2023-05-05T15:30:47.124Z,2.60
2023-05-05T15:33:16.626Z,3.65
2023-05-05T15:35:44.869Z,2.60
2023-05-05T15:38:13.052Z,2.88
2023-05-05T15:40:41.215Z,2.60
2023-05-05T15:43:09.295Z,2.47
2023-05-05T15:45:38.394Z,3.42
2023-05-05T15:48:07.210Z,2.97
2023-05-05T15:50:36.762Z,3.33
2023-05-05T15:53:04.924Z,2.53
2023-05-05T15:55:33.240Z,2.58
2023-05-05T15:58:01.313Z,2.85
2023-05-05T16:00:31.324Z,2.60
2023-05-05T16:02:59.584Z,2.83
2023-05-05T16:05:27.759Z,2.88
2023-05-05T16:07:57.209Z,2.88
2023-05-05T16:10:25.572Z,2.90
2023-05-05T16:12:53.819Z,2.95
2023-05-05T16:15:22.230Z,2.97
2023-05-05T16:17:50.575Z,2.88
2023-05-05T16:20:18.943Z,2.97
2023-05-05T16:22:47.196Z,2.65
2023-05-05T16:25:18.291Z,2.92
2023-05-05T16:27:46.368Z,2.60
2023-05-05T16:30:16.144Z,2.72
2023-05-05T16:32:44.421Z,2.80
2023-05-05T16:35:12.862Z,3.03
2023-05-05T16:37:40.993Z,2.50
2023-05-05T16:40:10.964Z,2.78
2023-05-05T16:42:41.912Z,2.88
2023-05-05T16:45:12.331Z,3.20
2023-05-05T16:47:40.493Z,3.05
2023-05-05T16:50:09.819Z,2.95
2023-05-05T16:52:38.165Z,4.03
2023-05-05T16:55:06.968Z,2.88
2023-05-05T16:57:35.358Z,3.17
2023-05-05T17:00:05.903Z,2.83
2023-05-05T17:02:35.304Z,2.92
2023-05-05T17:05:03.540Z,2.97
2023-05-05T17:07:31.797Z,3.15
2023-05-05T17:09:59.959Z,3.38
2023-05-05T17:12:28.180Z,3.17
2023-05-05T17:14:56.422Z,3.17
2023-05-05T17:17:26.277Z,3.08
2023-05-05T17:19:54.566Z,3.63
2023-05-05T17:22:22.679Z,3.17
2023-05-05T17:24:50.842Z,3.20
2023-05-05T17:27:18.984Z,3.15
2023-05-05T17:29:47.432Z,3.30
2023-05-05T17:32:15.636Z,3.33
2023-05-05T17:34:45.649Z,3.40
2023-05-05T17:37:13.796Z,3.88
2023-05-05T17:39:41.921Z,3.30
2023-05-05T17:42:10.066Z,3.20
2023-05-05T17:44:38.150Z,3.35
2023-05-05T17:47:07.820Z,3.22
2023-05-05T17:49:36.038Z,2.90
2023-05-05T17:52:05.969Z,3.15
2023-05-05T17:54:34.192Z,3.22
2023-05-05T17:57:02.575Z,3.17
2023-05-05T17:59:32.547Z,3.33
2023-05-05T18:02:00.762Z,3.42
2023-05-05T18:04:28.969Z,3.55
2023-05-05T18:06:57.108Z,3.30
2023-05-05T18:09:27.566Z,3.80
2023-05-05T18:11:56.341Z,3.58
2023-05-05T18:14:24.713Z,3.60
2023-05-05T18:16:53.775Z,4.13
2023-05-05T18:19:23.541Z,3.80
2023-05-05T18:21:54.234Z,3.50
2023-05-05T18:24:22.482Z,4.38
2023-05-05T18:26:53.491Z,4.28
2023-05-05T18:29:22.652Z,4.07
2023-05-05T18:31:54.688Z,4.50
2023-05-05T18:34:23.085Z,4.22
2023-05-05T18:36:54.243Z,3.47
2023-05-05T18:39:25.258Z,4.07
2023-05-05T18:41:55.124Z,4.05
2023-05-05T18:44:23.426Z,4.22
2023-05-05T18:46:51.790Z,3.97
2023-05-05T18:49:24.842Z,3.50
2023-05-05T18:51:53.644Z,4.43
2023-05-05T18:54:22.114Z,4.20
2023-05-05T18:56:50.348Z,4.10
2023-05-05T18:59:20.452Z,4.60
2023-05-05T19:01:48.954Z,3.88
2023-05-05T19:04:30.276Z,3.75
2023-05-05T19:06:59.909Z,4.07
2023-05-05T19:09:28.478Z,4.65
2023-05-05T19:11:56.712Z,4.18
2023-05-05T19:14:26.670Z,4.40
2023-05-05T19:16:56.275Z,3.88
2023-05-05T19:19:24.751Z,3.92
2023-05-05T19:21:53.605Z,3.55
2023-05-05T19:24:21.861Z,4.15
2023-05-05T19:26:50.365Z,4.20
2023-05-05T19:29:18.760Z,3.85
2023-05-05T19:31:48.490Z,4.32
2023-05-05T19:34:16.697Z,3.72
2023-05-05T19:36:45.028Z,3.78
2023-05-05T19:39:15.641Z,4.00
2023-05-05T19:41:44.112Z,4.40
2023-05-05T19:44:12.389Z,4.35
2023-05-05T19:46:41.081Z,3.83
2023-05-05T19:49:10.869Z,4.15
2023-05-05T19:51:39.332Z,3.63
2023-05-05T19:54:07.870Z,3.92
2023-05-05T19:56:36.439Z,4.50
2023-05-05T19:59:06.298Z,4.00
2023-05-05T20:01:35.889Z,4.30
2023-05-05T20:04:04.662Z,4.10
2023-05-05T20:06:35.784Z,4.38
2023-05-05T20:09:04.153Z,4.32
2023-05-05T20:11:32.762Z,3.95
2023-05-05T20:14:01.125Z,4.15
2023-05-05T20:16:29.372Z,3.88
2023-05-05T20:18:57.972Z,3.90
2023-05-05T20:21:27.084Z,4.38
2023-05-05T20:23:56.790Z,3.80
2023-05-05T20:26:25.753Z,4.32
2023-05-05T20:28:54.264Z,3.97
2023-05-05T20:31:25.528Z,3.80
2023-05-05T20:33:53.849Z,4.18
2023-05-05T20:36:22.966Z,3.90
2023-05-05T20:38:51.890Z,4.03
2023-05-05T20:41:22.033Z,4.10
2023-05-05T20:43:50.585Z,4.05
2023-05-05T20:46:18.837Z,3.80
2023-05-05T20:48:46.987Z,3.42
2023-05-05T20:51:15.146Z,4.10
2023-05-05T20:53:43.445Z,3.45
2023-05-05T20:56:11.623Z,4.15
2023-05-05T20:58:41.297Z,4.20
2023-05-05T21:01:12.159Z,4.13
2023-05-05T21:03:40.696Z,4.13
2023-05-05T21:06:09.069Z,3.97
2023-05-05T21:08:39.498Z,3.90
2023-05-05T21:11:10.475Z,4.40
2023-05-05T21:13:40.248Z,3.83
2023-05-05T21:16:08.515Z,4.65
2023-05-05T21:18:36.816Z,4.75
2023-05-05T21:21:05.029Z,4.07
2023-05-05T21:23:33.300Z,5.57
2023-05-05T21:26:03.277Z,4.70
2023-05-05T21:28:31.436Z,4.00
2023-05-05T21:31:20.346Z,4.35
2023-05-05T21:33:49.658Z,4.90
2023-05-05T21:36:19.548Z,4.30
2023-05-05T21:38:47.932Z,4.00
2023-05-05T21:41:16.695Z,4.15
2023-05-05T21:43:44.957Z,4.10
2023-05-05T21:46:15.144Z,3.90
2023-05-05T21:48:43.612Z,4.18
2023-05-05T21:51:11.832Z,4.25
2023-05-05T21:53:40.962Z,4.75
2023-05-05T21:56:09.303Z,4.03
2023-05-05T21:58:37.811Z,4.53
2023-05-05T22:01:06.059Z,4.25
2023-05-05T22:03:36.957Z,3.92
2023-05-05T22:06:05.425Z,5.13
2023-05-05T22:08:33.627Z,4.63
2023-05-05T22:11:02.132Z,3.70
2023-05-05T22:13:30.311Z,4.13
2023-05-05T22:15:58.497Z,4.47
2023-05-05T22:18:26.697Z,4.15
2023-05-05T22:20:56.580Z,4.25
2023-05-05T22:23:24.870Z,4.63
2023-05-05T22:25:53.033Z,3.70
2023-05-05T22:28:22.130Z,4.43
2023-05-05T22:30:50.733Z,4.25
2023-05-05T22:33:19.131Z,4.28
2023-05-05T22:35:47.331Z,4.43
2023-05-05T22:38:16.933Z,4.35
2023-05-05T22:40:45.156Z,4.68
2023-05-05T22:43:13.496Z,4.85
2023-05-05T22:45:41.995Z,4.53
2023-05-05T22:48:10.353Z,4.90
2023-05-05T22:50:38.786Z,4.88
2023-05-05T22:53:07.845Z,5.50
2023-05-05T22:55:37.626Z,4.50
2023-05-05T22:58:06.165Z,5.63
2023-05-05T23:00:34.364Z,4.75
2023-05-05T23:03:03.009Z,5.70
2023-05-05T23:05:31.301Z,4.80
2023-05-05T23:08:01.231Z,5.53
2023-05-05T23:10:30.414Z,5.80
2023-05-05T23:13:00.239Z,5.65
2023-05-05T23:15:28.681Z,5.05
2023-05-05T23:17:56.862Z,5.95
2023-05-05T23:20:25.199Z,6.90
2023-05-05T23:22:53.300Z,6.68
2023-05-05T23:25:21.651Z,7.63
2023-05-05T23:27:49.664Z,6.63
2023-05-05T23:30:19.441Z,6.97
2023-05-05T23:32:47.596Z,7.50
2023-05-05T23:35:15.753Z,8.07
2023-05-05T23:37:44.097Z,8.23
2023-05-05T23:40:12.525Z,7.45
2023-05-05T23:42:40.646Z,7.05
2023-05-05T23:45:10.529Z,7.70
2023-05-05T23:47:40.357Z,7.55
2023-05-05T23:50:09.804Z,8.20
2023-05-05T23:52:37.993Z,9.77
2023-05-05T23:55:07.520Z,8.23
2023-05-05T23:57:36.662Z,8.65
